M I D A S
Marine Information and Data Acquisition System
Tripno 1710 of the Zeeleeuw from 2009-06-16 05:47:27 to 2009-06-16 17:07:37
Back to CruiseResearch ActivitiesStationsMapUnderway DataData graphs

EquipmentUnitsComments
TimeDGPSUTC
LatitudeDGPSDM.mWGS84
LongitudeDGPSDM.mWGS84
SpeedMeteo Stationm/sRelative wind speed
DirectionMeteo StationdegRelative wind direction
TemperatureMeteo Stationdeg CelciusAir temperature
PressureMeteo StationPaAtmospheric pressure
HumidityMeteo Station%Relative humidity
Missing or incorrect values are displayed as -999
Metereological data collected by the RV Zeeleeuw from 2009-06-16 05:12:25 to 2009-06-16 17:15:40
                                                                                    Next 1000 lines
Time Latitude Longitude Speed Direction Temperature Pressure Humidity
2009-06-16 05:12:34 51°13.663 2°55.955 9.4 53 14.8 101810 86
2009-06-16 05:12:39 51°13.664 2°55.952 9 22 14.8 101810 85
2009-06-16 05:12:45 51°13.665 2°55.947 7.2 51 14.8 101810 85
2009-06-16 05:12:50 51°13.667 2°55.943 8.4 24 14.8 101810 85
2009-06-16 05:12:55 51°13.668 2°55.937 7.1 53 14.8 101810 85
2009-06-16 05:13:01 51°13.671 2°55.931 8 26 14.8 101810 85
2009-06-16 05:13:07 51°13.673 2°55.923 10 58 14.8 101810 85
2009-06-16 05:13:12 51°13.675 2°55.916 7.3 21 14.8 101810 86
2009-06-16 05:13:18 51°13.677 2°55.907 8.3 56 14.8 101810 86
2009-06-16 05:13:23 51°13.679 2°55.9 5.7 26 14.8 101810 85
2009-06-16 05:13:28 51°13.681 2°55.892 6.3 58 14.8 101810 85
2009-06-16 05:13:33 51°13.683 2°55.885 5.8 24 14.8 101810 84
2009-06-16 05:13:38 51°13.684 2°55.877 7.9 52 14.8 101810 84
2009-06-16 05:13:43 51°13.686 2°55.87 6 24 14.9 101820 86
2009-06-16 05:13:48 51°13.688 2°55.863 3.9 59 14.9 101820 86
2009-06-16 05:13:53 51°13.689 2°55.856 7.3 20 14.9 101820 87
2009-06-16 05:13:58 51°13.691 2°55.848 6.3 58 14.9 101820 87
2009-06-16 05:14:03 51°13.692 2°55.842 4 28 14.9 101820 86
2009-06-16 05:14:08 51°13.693 2°55.835 7.9 56 14.9 101820 86
2009-06-16 05:14:13 51°13.695 2°55.828 5.5 27 15 101820 85
2009-06-16 05:14:18 51°13.696 2°55.821 5.4 53 15 101820 85
2009-06-16 05:14:23 51°13.697 2°55.814 5.9 27 15 101810 85
2009-06-16 05:14:28 51°13.698 2°55.807 4.9 50 15 101810 85
2009-06-16 05:14:33 51°13.699 2°55.8 5.5 27 15 101820 85
2009-06-16 05:14:38 51°13.699 2°55.794 6.3 59 15 101820 85
2009-06-16 05:14:43 51°13.7 2°55.788 6.8 23 15 101810 85
2009-06-16 05:14:48 51°13.701 2°55.782 7.6 56 15 101810 85
2009-06-16 05:14:53 51°13.701 2°55.777 6.7 24 15 101820 85
2009-06-16 05:14:58 51°13.702 2°55.773 4.6 57 15 101820 85
2009-06-16 05:15:02 51°13.702 2°55.771 4.3 28 15 101810 85
2009-06-16 05:15:07 51°13.703 2°55.769 4.7 59 15 101810 85
2009-06-16 05:15:12 51°13.703 2°55.768 3.6 25 15 101810 84
2009-06-16 05:15:17 51°13.703 2°55.768 2.7 59 15 101810 84
2009-06-16 05:15:22 51°13.704 2°55.768 2.7 20 15 101810 84
2009-06-16 05:15:27 51°13.704 2°55.769 2.2 268 15 101810 84
2009-06-16 05:15:32 51°13.705 2°55.769 1.9 30 15 101820 84
2009-06-16 05:15:37 51°13.705 2°55.77 2 56 15 101820 84
2009-06-16 05:15:41 51°13.706 2°55.771 3 20 15 101820 84
2009-06-16 05:15:46 51°13.706 2°55.771 2 51 15 101820 84
2009-06-16 05:15:51 51°13.707 2°55.772 2.7 24 15 101820 85
2009-06-16 05:15:56 51°13.707 2°55.771 2.6 313 15 101820 85
2009-06-16 05:16:01 51°13.707 2°55.771 4.5 257 15 101820 84
2009-06-16 05:16:05 51°13.707 2°55.77 4.6 307 15 101820 84
2009-06-16 05:16:10 51°13.706 2°55.768 2.5 263 15 101810 84
2009-06-16 05:16:15 51°13.705 2°55.766 3 302 15 101810 84
2009-06-16 05:16:20 51°13.704 2°55.764 3.1 262 15 101810 84
2009-06-16 05:16:25 51°13.703 2°55.762 2.6 302 15 101810 84
2009-06-16 05:16:30 51°13.701 2°55.76 2.4 31 15 101820 84
2009-06-16 05:16:36 51°13.699 2°55.758 2.4 50 15 101820 84
2009-06-16 05:16:41 51°13.699 2°55.756 3.6 28 15 101820 84
2009-06-16 05:16:47 51°13.698 2°55.755 5.7 58 15 101820 84
2009-06-16 05:16:53 51°13.699 2°55.755 6.8 270 15 101810 84
2009-06-16 05:16:58 51°13.699 2°55.755 5 305 15 101810 84
2009-06-16 05:17:03 51°13.701 2°55.755 6.8 258 15 101810 84
2009-06-16 05:17:08 51°13.703 2°55.756 2.8 310 15 101810 84
2009-06-16 05:17:13 51°13.705 2°55.756 4.9 259 15 101820 83
2009-06-16 05:17:17 51°13.707 2°55.756 5.2 307 15 101820 83
2009-06-16 05:17:22 51°13.71 2°55.756 4.1 262 15 101820 83
2009-06-16 05:17:27 51°13.713 2°55.755 4.1 303 15 101820 83
2009-06-16 05:17:32 51°13.716 2°55.753 4.5 27 15 101810 83
2009-06-16 05:17:37 51°13.719 2°55.751 4.1 303 15 101810 83
2009-06-16 05:17:42 51°13.723 2°55.748 3.8 25 15 101820 83
2009-06-16 05:17:46 51°13.726 2°55.745 5.6 302 15 101820 83
2009-06-16 05:17:51 51°13.73 2°55.74 4.8 329 15 101810 83
2009-06-16 05:17:56 51°13.735 2°55.735 5 330 15 101810 83
2009-06-16 05:18:01 51°13.74 2°55.728 6 330 15 101810 83
2009-06-16 05:18:06 51°13.745 2°55.722 4.9 337 15 101810 83
2009-06-16 05:18:10 51°13.75 2°55.716 6.1 333 15 101810 83
2009-06-16 05:18:16 51°13.757 2°55.708 8.4 302 15 101810 83
2009-06-16 05:18:20 51°13.762 2°55.702 6.4 321 15 101810 83
2009-06-16 05:18:25 51°13.768 2°55.694 9.7 329 15 101810 83
2009-06-16 05:18:30 51°13.775 2°55.687 7.7 320 15 101810 83
2009-06-16 05:18:34 51°13.781 2°55.681 10.8 327 15 101810 83
2009-06-16 05:18:40 51°13.79 2°55.672 9.4 317 15 101810 83
2009-06-16 05:18:43 51°13.795 2°55.667 10 307 15 101810 83
2009-06-16 05:18:49 51°13.804 2°55.659 10 318 14.9 101810 83
2009-06-16 05:18:54 51°13.812 2°55.651 8.8 326 14.9 101810 83
2009-06-16 05:18:58 51°13.819 2°55.645 8.7 324 14.9 101820 82
2009-06-16 05:19:04 51°13.83 2°55.637 9.1 306 14.9 101820 82
2009-06-16 05:19:09 51°13.839 2°55.629 9 317 14.9 101820 83
2009-06-16 05:19:14 51°13.848 2°55.623 7.9 302 14.9 101820 83
2009-06-16 05:19:19 51°13.858 2°55.615 7.2 327 14.9 101810 83
2009-06-16 05:19:24 51°13.867 2°55.609 6.2 308 14.9 101810 83
2009-06-16 05:19:29 51°13.876 2°55.601 7 326 14.9 101810 82
2009-06-16 05:19:34 51°13.886 2°55.593 4.8 279 14.9 101810 82
2009-06-16 05:19:39 51°13.896 2°55.585 7.1 329 14.9 101810 82
2009-06-16 05:19:45 51°13.908 2°55.576 9.6 310 14.9 101810 82
2009-06-16 05:19:49 51°13.916 2°55.569 6.8 323 14.9 101810 83
2009-06-16 05:19:54 51°13.927 2°55.562 9.8 302 14.9 101810 83
2009-06-16 05:19:59 51°13.937 2°55.554 8.6 26 14.9 101810 83
2009-06-16 05:20:04 51°13.948 2°55.547 7.6 303 14.9 101810 83
2009-06-16 05:20:09 51°13.958 2°55.539 5.4 26 14.9 101810 83
2009-06-16 05:20:14 51°13.969 2°55.531 9 305 14.9 101810 83
2009-06-16 05:20:19 51°13.98 2°55.524 8.5 315 14.9 101810 83
2009-06-16 05:20:24 51°13.991 2°55.515 7 305 14.9 101810 83
2009-06-16 05:20:30 51°14.004 2°55.506 6.5 20 14.9 101810 83
2009-06-16 05:20:34 51°14.013 2°55.5 9.9 326 14.9 101810 83
2009-06-16 05:20:39 51°14.024 2°55.491 9.9 318 14.9 101810 83
2009-06-16 05:20:45 51°14.037 2°55.482 9.7 304 14.9 101810 83
2009-06-16 05:20:49 51°14.047 2°55.475 9.2 326 14.9 101810 83
2009-06-16 05:20:54 51°14.058 2°55.467 8.7 309 14.9 101810 83
2009-06-16 05:20:59 51°14.07 2°55.459 10.9 317 14.8 101810 83
2009-06-16 05:21:04 51°14.081 2°55.45 12.8 303 14.8 101810 83
2009-06-16 05:21:09 51°14.093 2°55.442 10 317 14.8 101810 83
2009-06-16 05:21:14 51°14.105 2°55.433 10.6 301 14.8 101810 83
2009-06-16 05:21:19 51°14.116 2°55.424 10.4 318 14.8 101810 83
2009-06-16 05:21:25 51°14.13 2°55.413 15.7 307 14.8 101810 83
2009-06-16 05:21:29 51°14.139 2°55.406 11.8 25 14.8 101800 83
2009-06-16 05:21:34 51°14.151 2°55.396 14.1 307 14.8 101800 83
2009-06-16 05:21:39 51°14.163 2°55.387 13.9 25 14.9 101800 84
2009-06-16 05:21:45 51°14.176 2°55.373 12.1 302 14.9 101800 84
2009-06-16 05:21:49 51°14.184 2°55.364 12.3 318 14.9 101800 85
2009-06-16 05:21:54 51°14.195 2°55.352 11.5 304 14.9 101800 85
2009-06-16 05:21:59 51°14.205 2°55.339 14.2 319 14.9 101800 85
2009-06-16 05:22:05 51°14.218 2°55.323 15.2 305 14.9 101800 85
2009-06-16 05:22:09 51°14.226 2°55.312 13.6 21 14.9 101800 84
2009-06-16 05:22:14 51°14.236 2°55.297 13.9 325 14.9 101800 84
2009-06-16 05:22:19 51°14.245 2°55.281 12.1 322 14.9 101800 84
2009-06-16 05:22:24 51°14.255 2°55.265 14.1 305 14.9 101800 84
2009-06-16 05:22:29 51°14.265 2°55.249 14.3 321 14.9 101810 84
2009-06-16 05:22:34 51°14.274 2°55.232 12.8 303 14.9 101810 84
2009-06-16 05:22:39 51°14.284 2°55.215 12.1 324 14.9 101800 85
2009-06-16 05:22:44 51°14.293 2°55.197 14.5 305 14.9 101800 85
2009-06-16 05:22:49 51°14.302 2°55.179 11.9 324 14.9 101800 85
2009-06-16 05:22:54 51°14.311 2°55.161 12.9 305 14.9 101800 85
2009-06-16 05:22:59 51°14.32 2°55.143 16.2 324 14.9 101800 85
2009-06-16 05:23:04 51°14.329 2°55.124 16.3 325 14.9 101800 85
2009-06-16 05:23:09 51°14.339 2°55.106 13.6 325 14.9 101800 85
2009-06-16 05:23:14 51°14.348 2°55.087 13.7 326 14.9 101800 85
2009-06-16 05:23:19 51°14.358 2°55.068 13.1 324 14.9 101800 86
2009-06-16 05:23:24 51°14.367 2°55.049 14 326 14.9 101800 86
2009-06-16 05:23:29 51°14.376 2°55.029 17.5 326 14.9 101790 85
2009-06-16 05:23:34 51°14.387 2°55.011 13.7 302 14.9 101790 85
2009-06-16 05:23:39 51°14.397 2°54.993 14.8 325 14.9 101790 85
2009-06-16 05:23:44 51°14.408 2°54.975 13.7 326 14.9 101790 85
2009-06-16 05:23:49 51°14.418 2°54.957 16.7 327 14.8 101790 84
2009-06-16 05:23:54 51°14.428 2°54.938 12 326 14.8 101790 84
2009-06-16 05:23:59 51°14.439 2°54.92 12.4 328 14.8 101800 84
2009-06-16 05:24:04 51°14.449 2°54.902 12.6 330 14.8 101800 84
2009-06-16 05:24:09 51°14.458 2°54.884 15.3 329 14.8 101790 84
2009-06-16 05:24:14 51°14.467 2°54.865 13 330 14.8 101790 84
2009-06-16 05:24:19 51°14.476 2°54.845 16.4 331 14.8 101800 84
2009-06-16 05:24:25 51°14.486 2°54.822 17.3 331 14.8 101800 84
2009-06-16 05:24:29 51°14.493 2°54.806 14.7 330 14.8 101800 85
2009-06-16 05:24:34 51°14.501 2°54.786 15.4 330 14.8 101800 85
2009-06-16 05:24:39 51°14.508 2°54.766 15.4 329 14.8 101810 84
2009-06-16 05:24:44 51°14.516 2°54.746 13.2 328 14.8 101810 84
2009-06-16 05:24:49 51°14.524 2°54.726 13.1 329 14.8 101810 84
2009-06-16 05:24:54 51°14.532 2°54.706 15 329 14.8 101810 84
2009-06-16 05:24:59 51°14.539 2°54.686 13.4 330 14.8 101800 84
2009-06-16 05:25:04 51°14.546 2°54.665 14.8 329 14.8 101800 84
2009-06-16 05:25:09 51°14.553 2°54.645 15.8 330 14.8 101810 83
2009-06-16 05:25:14 51°14.56 2°54.624 16.2 330 14.8 101810 83
2009-06-16 05:25:19 51°14.568 2°54.603 12.8 330 14.8 101800 83
2009-06-16 05:25:25 51°14.576 2°54.579 16.6 330 14.8 101800 83
2009-06-16 05:25:29 51°14.582 2°54.562 13.2 329 14.8 101800 82
2009-06-16 05:25:34 51°14.589 2°54.541 16.2 329 14.8 101800 82
2009-06-16 05:25:39 51°14.596 2°54.521 15.5 328 14.8 101810 83
2009-06-16 05:25:45 51°14.606 2°54.497 15.9 327 14.8 101810 83
2009-06-16 05:25:49 51°14.613 2°54.481 15.7 327 14.8 101810 83
2009-06-16 05:25:54 51°14.622 2°54.462 15.8 326 14.8 101810 83
2009-06-16 05:25:59 51°14.631 2°54.443 16.5 325 14.8 101810 83
2009-06-16 05:26:05 51°14.643 2°54.422 13.8 304 14.8 101810 83
2009-06-16 05:26:09 51°14.652 2°54.409 13.4 321 14.8 101800 83
2009-06-16 05:26:14 51°14.664 2°54.393 11.7 303 14.8 101800 83
2009-06-16 05:26:19 51°14.677 2°54.38 12.9 319 14.8 101800 83
2009-06-16 05:26:25 51°14.693 2°54.366 16.1 309 14.8 101800 83
2009-06-16 05:26:29 51°14.704 2°54.357 16.4 317 14.8 101800 84
2009-06-16 05:26:34 51°14.718 2°54.346 13.3 302 14.8 101800 84
2009-06-16 05:26:39 51°14.733 2°54.336 13.4 317 14.8 101790 85
2009-06-16 05:26:45 51°14.75 2°54.324 12.9 307 14.8 101790 85
2009-06-16 05:26:49 51°14.762 2°54.317 11.6 318 14.8 101790 84
2009-06-16 05:26:54 51°14.777 2°54.309 12.6 306 14.8 101790 84
2009-06-16 05:26:59 51°14.793 2°54.301 12.5 317 14.8 101790 84
2009-06-16 05:27:05 51°14.811 2°54.29 12.4 306 14.8 101790 84
2009-06-16 05:27:10 51°14.825 2°54.281 15.2 322 14.8 101790 84
2009-06-16 05:27:15 51°14.837 2°54.267 14.3 305 14.8 101790 84
2009-06-16 05:27:19 51°14.845 2°54.255 12.4 330 14.9 101800 85
2009-06-16 05:27:25 51°14.856 2°54.236 15 332 14.9 101800 85
2009-06-16 05:27:30 51°14.864 2°54.218 15.4 332 14.9 101790 85
2009-06-16 05:27:35 51°14.871 2°54.198 12.5 286 14.9 101790 85
2009-06-16 05:27:39 51°14.876 2°54.182 15.1 332 14.9 101800 85
2009-06-16 05:27:45 51°14.883 2°54.158 12.8 331 14.9 101800 85
2009-06-16 05:27:50 51°14.89 2°54.137 13.9 332 14.9 101790 85
2009-06-16 05:27:55 51°14.896 2°54.116 15.7 327 14.9 101790 85
2009-06-16 05:27:59 51°14.902 2°54.1 12.8 330 14.9 101810 85
2009-06-16 05:28:05 51°14.91 2°54.075 13.5 331 14.9 101810 85
2009-06-16 05:28:10 51°14.918 2°54.055 15.5 330 14.9 101810 86
2009-06-16 05:28:15 51°14.925 2°54.034 13.2 328 14.9 101810 86
2009-06-16 05:28:19 51°14.932 2°54.018 13 328 14.9 101810 85
2009-06-16 05:28:25 51°14.943 2°53.995 13.5 328 14.9 101810 85
2009-06-16 05:28:30 51°14.951 2°53.976 13.2 329 14.8 101810 85
2009-06-16 05:28:35 51°14.96 2°53.957 15.9 282 14.8 101810 85
2009-06-16 05:28:40 51°14.97 2°53.939 13.2 327 14.8 101810 85
2009-06-16 05:28:45 51°14.981 2°53.922 13.3 302 14.8 101810 85
2009-06-16 05:28:50 51°14.993 2°53.906 15.9 326 14.8 101800 85
2009-06-16 05:28:55 51°15.005 2°53.891 16.2 306 14.8 101800 85
2009-06-16 05:28:59 51°15.015 2°53.88 13.2 323 14.8 101810 85
2009-06-16 05:29:05 51°15.031 2°53.864 15.9 304 14.8 101810 85
2009-06-16 05:29:10 51°15.045 2°53.854 15.6 319 14.8 101800 85
2009-06-16 05:29:15 51°15.059 2°53.844 14.1 305 14.8 101800 85
2009-06-16 05:29:19 51°15.071 2°53.838 13 319 14.8 101810 85
2009-06-16 05:29:24 51°15.085 2°53.828 12.5 304 14.8 101810 85
2009-06-16 05:29:30 51°15.103 2°53.817 13.6 320 14.8 101790 85
2009-06-16 05:29:35 51°15.117 2°53.808 14.7 281 14.8 101790 85
2009-06-16 05:29:39 51°15.129 2°53.801 15.3 322 14.7 101790 84
2009-06-16 05:29:44 51°15.144 2°53.792 15.9 307 14.7 101790 84
2009-06-16 05:29:50 51°15.162 2°53.781 16.1 322 14.8 101790 84
2009-06-16 05:29:55 51°15.177 2°53.772 13.5 306 14.8 101790 84
2009-06-16 05:29:59 51°15.188 2°53.764 16.2 324 14.8 101800 85
2009-06-16 05:30:05 51°15.206 2°53.753 13.6 301 14.8 101800 85
2009-06-16 05:30:09 51°15.218 2°53.746 15.4 321 14.8 101790 85
2009-06-16 05:30:15 51°15.236 2°53.735 14.9 304 14.8 101790 85
2009-06-16 05:30:19 51°15.248 2°53.728 12.9 320 14.8 101790 84
2009-06-16 05:30:25 51°15.265 2°53.717 12.8 306 14.8 101790 84
2009-06-16 05:30:30 51°15.28 2°53.708 15.5 320 14.7 101800 84
2009-06-16 05:30:34 51°15.292 2°53.701 14 304 14.7 101800 84
2009-06-16 05:30:39 51°15.307 2°53.691 12.1 319 14.7 101790 84
2009-06-16 05:30:45 51°15.324 2°53.68 15.5 307 14.7 101790 84
2009-06-16 05:30:50 51°15.339 2°53.67 13.8 318 14.7 101790 84
2009-06-16 05:30:55 51°15.354 2°53.661 16 307 14.7 101790 84
2009-06-16 05:31:00 51°15.369 2°53.652 16.2 319 14.7 101800 84
2009-06-16 05:31:05 51°15.383 2°53.643 13 308 14.7 101800 84
2009-06-16 05:31:10 51°15.398 2°53.634 14.7 316 14.7 101790 85
2009-06-16 05:31:15 51°15.413 2°53.625 16.4 305 14.7 101790 85
2009-06-16 05:31:19 51°15.425 2°53.618 16.1 316 14.7 101800 85
2009-06-16 05:31:25 51°15.443 2°53.606 12.9 303 14.7 101800 85
2009-06-16 05:31:30 51°15.458 2°53.597 12.7 318 14.7 101790 85
2009-06-16 05:31:35 51°15.473 2°53.588 15.6 280 14.7 101790 85
2009-06-16 05:31:39 51°15.485 2°53.582 15.8 319 14.7 101790 84
2009-06-16 05:31:44 51°15.5 2°53.573 14 307 14.7 101790 84
2009-06-16 05:31:50 51°15.517 2°53.562 14.4 317 14.7 101790 84
2009-06-16 05:31:55 51°15.532 2°53.553 15.4 307 14.7 101790 84
2009-06-16 05:31:59 51°15.544 2°53.546 12.3 319 14.7 101790 84
2009-06-16 05:32:05 51°15.562 2°53.536 13.5 304 14.7 101790 84
2009-06-16 05:32:10 51°15.577 2°53.527 12.2 323 14.7 101790 85
2009-06-16 05:32:15 51°15.592 2°53.518 13.1 301 14.7 101790 85
2009-06-16 05:32:19 51°15.604 2°53.511 12.7 321 14.7 101800 85
2009-06-16 05:32:25 51°15.622 2°53.501 15.6 309 14.7 101800 85
2009-06-16 05:32:30 51°15.637 2°53.492 15 322 14.8 101800 86
2009-06-16 05:32:35 51°15.652 2°53.483 16.2 310 14.8 101800 86
2009-06-16 05:32:39 51°15.664 2°53.477 16.5 318 14.7 101800 86
2009-06-16 05:32:45 51°15.682 2°53.468 16.2 305 14.7 101800 86
2009-06-16 05:32:50 51°15.698 2°53.461 15.3 317 14.7 101790 84
2009-06-16 05:32:54 51°15.71 2°53.455 15.3 308 14.7 101790 84
2009-06-16 05:33:00 51°15.729 2°53.447 13.1 319 14.7 101800 84
2009-06-16 05:33:05 51°15.744 2°53.44 12.5 306 14.7 101800 84
2009-06-16 05:33:10 51°15.76 2°53.433 15.3 317 14.7 101800 83
2009-06-16 05:33:15 51°15.775 2°53.427 15.3 307 14.7 101800 83
2009-06-16 05:33:20 51°15.791 2°53.42 11.9 315 14.6 101800 82
2009-06-16 05:33:25 51°15.807 2°53.414 12.4 302 14.6 101800 82
2009-06-16 05:33:30 51°15.822 2°53.408 15.6 316 14.6 101800 83
2009-06-16 05:33:35 51°15.838 2°53.401 11.5 303 14.6 101800 83
2009-06-16 05:33:39 51°15.85 2°53.396 14.5 322 14.7 101800 83
2009-06-16 05:33:45 51°15.869 2°53.388 16.7 307 14.7 101800 83
2009-06-16 05:33:50 51°15.885 2°53.381 16.3 317 14.7 101810 84
2009-06-16 05:33:55 51°15.9 2°53.375 16.7 305 14.7 101810 84
2009-06-16 05:33:59 51°15.913 2°53.37 16.5 317 14.7 101790 84
2009-06-16 05:34:04 51°15.929 2°53.364 14.7 311 14.7 101790 84
2009-06-16 05:34:10 51°15.947 2°53.356 13.4 316 14.7 101810 84
2009-06-16 05:34:15 51°15.963 2°53.349 12.8 305 14.7 101810 84
2009-06-16 05:34:19 51°15.976 2°53.344 13.2 27 14.7 101790 84
2009-06-16 05:34:25 51°15.994 2°53.337 14.9 309 14.7 101790 84
2009-06-16 05:34:30 51°16.01 2°53.331 13.1 317 14.6 101800 83
2009-06-16 05:34:35 51°16.026 2°53.324 12.9 302 14.6 101800 83
2009-06-16 05:34:39 51°16.038 2°53.319 13.7 317 14.6 101790 83
2009-06-16 05:34:45 51°16.057 2°53.311 12.3 302 14.6 101790 83
2009-06-16 05:34:50 51°16.073 2°53.305 14.9 24 14.6 101790 83
2009-06-16 05:34:55 51°16.089 2°53.299 12.5 305 14.6 101790 83
2009-06-16 05:34:59 51°16.101 2°53.294 13.1 22 14.6 101790 83
2009-06-16 05:35:05 51°16.12 2°53.286 12.8 304 14.6 101790 83
2009-06-16 05:35:10 51°16.136 2°53.281 15.2 317 14.6 101800 83
2009-06-16 05:35:15 51°16.151 2°53.274 16.2 306 14.6 101800 83
2009-06-16 05:35:19 51°16.164 2°53.269 13.4 316 14.6 101790 83
2009-06-16 05:35:25 51°16.182 2°53.262 15.2 305 14.6 101790 83
2009-06-16 05:35:30 51°16.198 2°53.256 15.9 315 14.6 101790 84
2009-06-16 05:35:35 51°16.214 2°53.25 13.5 302 14.6 101790 84
2009-06-16 05:35:39 51°16.226 2°53.244 15.3 319 14.6 101790 85
2009-06-16 05:35:45 51°16.245 2°53.237 16.2 302 14.6 101790 85
2009-06-16 05:35:50 51°16.261 2°53.231 12.9 320 14.6 101790 84
2009-06-16 05:35:55 51°16.277 2°53.224 15.4 309 14.6 101790 84
2009-06-16 05:35:59 51°16.289 2°53.219 16.1 319 14.6 101790 85
2009-06-16 05:36:05 51°16.308 2°53.212 13 302 14.6 101790 85
2009-06-16 05:36:10 51°16.324 2°53.205 15.2 318 14.6 101800 84
2009-06-16 05:36:15 51°16.34 2°53.199 15.6 301 14.6 101800 84
2009-06-16 05:36:19 51°16.352 2°53.195 12.8 318 14.6 101790 84
2009-06-16 05:36:25 51°16.371 2°53.188 12.2 305 14.6 101790 84
2009-06-16 05:36:30 51°16.387 2°53.181 14.2 317 14.6 101800 84
2009-06-16 05:36:35 51°16.403 2°53.175 14.8 303 14.6 101800 84
2009-06-16 05:36:39 51°16.416 2°53.171 14.7 318 14.5 101800 83
2009-06-16 05:36:45 51°16.435 2°53.165 12.6 308 14.5 101800 83
2009-06-16 05:36:50 51°16.451 2°53.16 16.2 315 14.5 101790 83
2009-06-16 05:36:55 51°16.467 2°53.155 14.8 306 14.5 101790 83
2009-06-16 05:36:59 51°16.479 2°53.151 13 318 14.6 101800 84
2009-06-16 05:37:05 51°16.499 2°53.146 13.5 308 14.6 101800 84
2009-06-16 05:37:10 51°16.515 2°53.141 16 316 14.5 101790 84
2009-06-16 05:37:15 51°16.531 2°53.136 12.9 304 14.5 101790 84
2009-06-16 05:37:19 51°16.544 2°53.133 12.8 315 14.6 101790 84
2009-06-16 05:37:25 51°16.563 2°53.127 15.2 305 14.6 101790 84
2009-06-16 05:37:30 51°16.579 2°53.123 12.9 21 14.5 101790 84
2009-06-16 05:37:35 51°16.595 2°53.118 12 303 14.5 101790 84
2009-06-16 05:37:39 51°16.608 2°53.115 14.5 22 14.5 101790 84
2009-06-16 05:37:45 51°16.627 2°53.11 11.7 309 14.5 101790 84
2009-06-16 05:37:50 51°16.643 2°53.105 13.8 22 14.6 101790 84
2009-06-16 05:37:55 51°16.66 2°53.101 13.1 309 14.6 101790 84
2009-06-16 05:37:59 51°16.672 2°53.097 12.7 23 14.5 101800 84
2009-06-16 05:38:05 51°16.692 2°53.093 15 307 14.5 101800 84
2009-06-16 05:38:10 51°16.708 2°53.088 12.2 316 14.6 101790 85
2009-06-16 05:38:15 51°16.724 2°53.085 15.7 308 14.6 101790 85
2009-06-16 05:38:19 51°16.737 2°53.081 12.6 23 14.6 101790 85
2009-06-16 05:38:25 51°16.756 2°53.077 15.1 310 14.6 101790 85
2009-06-16 05:38:30 51°16.772 2°53.073 13.2 19 14.6 101790 85
2009-06-16 05:38:35 51°16.788 2°53.067 14.7 305 14.6 101790 85
2009-06-16 05:38:39 51°16.801 2°53.064 14.7 28 14.5 101800 85
2009-06-16 05:38:44 51°16.817 2°53.059 12.3 306 14.5 101800 85
2009-06-16 05:38:50 51°16.836 2°53.054 12.5 26 14.5 101800 84
2009-06-16 05:38:55 51°16.852 2°53.05 14.9 305 14.5 101800 84
2009-06-16 05:38:59 51°16.865 2°53.046 15 21 14.5 101800 84
2009-06-16 05:39:04 51°16.88 2°53.042 12.3 302 14.5 101800 84
2009-06-16 05:39:10 51°16.899 2°53.036 11.8 26 14.5 101800 84
2009-06-16 05:39:15 51°16.915 2°53.031 14 311 14.5 101800 84
2009-06-16 05:39:19 51°16.928 2°53.027 11.5 317 14.5 101790 84
2009-06-16 05:39:25 51°16.947 2°53.022 15.6 304 14.5 101790 84
2009-06-16 05:39:30 51°16.963 2°53.018 14 317 14.5 101790 84
2009-06-16 05:39:35 51°16.979 2°53.013 13.2 304 14.5 101790 84
2009-06-16 05:39:39 51°16.992 2°53.009 14 315 14.6 101790 85
2009-06-16 05:39:45 51°17.011 2°53.003 13.6 306 14.6 101790 85
2009-06-16 05:39:49 51°17.023 2°52.999 15.5 315 14.6 101800 85
2009-06-16 05:39:55 51°17.043 2°52.994 12.8 307 14.6 101800 85
2009-06-16 05:39:59 51°17.055 2°52.99 15.6 25 14.6 101800 85
2009-06-16 05:40:05 51°17.074 2°52.985 12.7 305 14.6 101800 85
2009-06-16 05:40:10 51°17.09 2°52.98 13.8 21 14.6 101790 85
2009-06-16 05:40:15 51°17.106 2°52.975 14.5 301 14.6 101790 85
2009-06-16 05:40:19 51°17.119 2°52.971 16 316 14.5 101790 85
2009-06-16 05:40:25 51°17.138 2°52.965 15.1 307 14.5 101790 85
2009-06-16 05:40:30 51°17.154 2°52.96 13.3 23 14.5 101790 84
2009-06-16 05:40:35 51°17.17 2°52.955 16.5 283 14.5 101790 84
2009-06-16 05:40:39 51°17.183 2°52.952 16 24 14.5 101800 84
2009-06-16 05:40:44 51°17.199 2°52.948 14.6 306 14.5 101800 84
2009-06-16 05:40:50 51°17.219 2°52.945 14.9 23 14.5 101800 84
2009-06-16 05:40:55 51°17.235 2°52.944 15.8 305 14.5 101800 84
2009-06-16 05:40:59 51°17.248 2°52.944 12.8 25 14.5 101800 81
2009-06-16 05:41:04 51°17.265 2°52.946 12.2 303 14.5 101800 81
2009-06-16 05:41:10 51°17.285 2°52.949 15.3 24 14.5 101800 84
2009-06-16 05:41:15 51°17.301 2°52.954 15.3 304 14.5 101800 84
2009-06-16 05:41:19 51°17.314 2°52.957 15.4 23 14.5 101800 84
2009-06-16 05:41:25 51°17.333 2°52.966 13.6 307 14.5 101800 84
2009-06-16 05:41:29 51°17.346 2°52.971 11.9 24 14.5 101800 84
2009-06-16 05:41:35 51°17.365 2°52.983 14.2 302 14.5 101800 84
2009-06-16 05:41:39 51°17.378 2°52.991 11.4 28 14.5 101800 84
2009-06-16 05:41:45 51°17.396 2°53.005 10.8 302 14.5 101800 84
2009-06-16 05:41:50 51°17.412 2°53.014 11.5 20 14.5 101800 84
2009-06-16 05:41:55 51°17.427 2°53.028 11.7 306 14.5 101800 84
2009-06-16 05:41:59 51°17.439 2°53.038 12.2 21 14.5 101800 85
2009-06-16 05:42:05 51°17.457 2°53.053 9.5 304 14.5 101800 85
2009-06-16 05:42:10 51°17.471 2°53.068 10.7 248 14.5 101800 85
2009-06-16 05:42:15 51°17.486 2°53.082 11.3 303 14.5 101800 85
2009-06-16 05:42:19 51°17.497 2°53.095 8.3 25 14.5 101820 85
2009-06-16 05:42:25 51°17.514 2°53.114 10.9 301 14.5 101820 85
2009-06-16 05:42:30 51°17.529 2°53.13 10.9 25 14.5 101820 85
2009-06-16 05:42:35 51°17.542 2°53.147 11.9 278 14.5 101820 85
2009-06-16 05:42:39 51°17.554 2°53.159 10.7 22 14.6 101830 85
2009-06-16 05:42:45 51°17.57 2°53.181 9 302 14.6 101830 85
2009-06-16 05:42:50 51°17.584 2°53.197 8.9 26 14.6 101820 85
2009-06-16 05:42:55 51°17.597 2°53.215 10.7 305 14.6 101820 85
2009-06-16 05:42:59 51°17.609 2°53.227 11.4 26 14.6 101820 86
2009-06-16 05:43:04 51°17.622 2°53.246 11.4 303 14.6 101820 86
2009-06-16 05:43:10 51°17.638 2°53.266 10.9 24 14.6 101820 86
2009-06-16 05:43:15 51°17.652 2°53.283 12.3 303 14.6 101820 86
2009-06-16 05:43:19 51°17.663 2°53.298 9.9 28 14.6 101820 86
2009-06-16 05:43:25 51°17.679 2°53.318 12.2 309 14.6 101820 86
2009-06-16 05:43:30 51°17.693 2°53.336 9.6 20 14.6 101810 86
2009-06-16 05:43:35 51°17.706 2°53.352 9 309 14.6 101810 86
2009-06-16 05:43:39 51°17.718 2°53.366 9.8 24 14.6 101810 86
2009-06-16 05:43:45 51°17.734 2°53.386 11.1 305 14.6 101810 86
2009-06-16 05:43:50 51°17.748 2°53.403 10.9 21 14.6 101810 86
2009-06-16 05:43:55 51°17.762 2°53.42 10.1 302 14.6 101810 86
2009-06-16 05:43:59 51°17.773 2°53.433 9.5 23 14.5 101820 85
2009-06-16 05:44:05 51°17.789 2°53.453 10.1 303 14.5 101820 85
2009-06-16 05:44:10 51°17.803 2°53.469 9.9 25 14.5 101820 85
2009-06-16 05:44:15 51°17.817 2°53.487 10 305 14.5 101820 85
2009-06-16 05:44:20 51°17.831 2°53.503 9.5 24 14.6 101810 85
2009-06-16 05:44:25 51°17.845 2°53.519 9.2 308 14.6 101810 85
2009-06-16 05:44:30 51°17.859 2°53.535 11.4 19 14.6 101820 86
2009-06-16 05:44:35 51°17.873 2°53.552 10 281 14.6 101820 86
2009-06-16 05:44:40 51°17.887 2°53.567 12.8 26 14.5 101820 86
2009-06-16 05:44:45 51°17.901 2°53.583 10.7 306 14.5 101820 86
2009-06-16 05:44:50 51°17.916 2°53.6 11.3 21 14.6 101820 86
2009-06-16 05:44:55 51°17.93 2°53.616 10.6 302 14.6 101820 86
2009-06-16 05:44:59 51°17.941 2°53.629 11.8 22 14.6 101810 86
2009-06-16 05:45:05 51°17.958 2°53.649 12.7 308 14.6 101810 86
2009-06-16 05:45:10 51°17.972 2°53.664 11.8 20 14.6 101810 86
2009-06-16 05:45:15 51°17.986 2°53.68 11.2 304 14.6 101810 86
2009-06-16 05:45:19 51°17.998 2°53.693 9.8 23 14.6 101820 86
2009-06-16 05:45:24 51°18.012 2°53.709 10.3 304 14.6 101820 86
2009-06-16 05:45:30 51°18.029 2°53.727 12.6 24 14.5 101810 86
2009-06-16 05:45:35 51°18.044 2°53.743 10.1 303 14.5 101810 86
2009-06-16 05:45:39 51°18.055 2°53.756 12.2 21 14.5 101830 86
2009-06-16 05:45:45 51°18.072 2°53.774 12.6 301 14.5 101830 86
2009-06-16 05:45:50 51°18.086 2°53.79 11.1 27 14.6 101820 86
2009-06-16 05:45:55 51°18.101 2°53.806 13.5 306 14.6 101820 86
2009-06-16 05:45:59 51°18.112 2°53.819 10.9 23 14.5 101820 86
2009-06-16 05:46:05 51°18.129 2°53.838 10.8 304 14.5 101820 86
2009-06-16 05:46:10 51°18.144 2°53.853 12.9 23 14.6 101820 86
2009-06-16 05:46:15 51°18.158 2°53.868 11.7 304 14.6 101820 86
2009-06-16 05:46:19 51°18.169 2°53.881 11.6 23 14.5 101820 86
2009-06-16 05:46:25 51°18.186 2°53.899 13.1 307 14.5 101820 86
2009-06-16 05:46:30 51°18.201 2°53.915 10.3 25 14.5 101820 86
2009-06-16 05:46:35 51°18.215 2°53.931 8.9 282 14.5 101820 86
2009-06-16 05:46:40 51°18.23 2°53.947 9.9 25 14.5 101820 86
2009-06-16 05:46:45 51°18.244 2°53.962 12.3 309 14.5 101820 86
2009-06-16 05:46:50 51°18.258 2°53.978 9.8 26 14.5 101820 86
2009-06-16 05:46:55 51°18.272 2°53.994 11.5 305 14.5 101820 86
2009-06-16 05:46:59 51°18.284 2°54.006 11.6 21 14.5 101830 86
2009-06-16 05:47:05 51°18.301 2°54.025 11.4 310 14.5 101830 86
2009-06-16 05:47:10 51°18.316 2°54.04 12.8 22 14.5 101820 86
2009-06-16 05:47:15 51°18.33 2°54.056 9.7 306 14.5 101820 86
2009-06-16 05:47:19 51°18.341 2°54.07 10.6 28 14.5 101820 86
2009-06-16 05:47:24 51°18.356 2°54.084 10.1 305 14.5 101820 86
2009-06-16 05:47:30 51°18.373 2°54.104 12.6 22 14.5 101820 86
2009-06-16 05:47:35 51°18.387 2°54.119 11.5 285 14.5 101820 86
2009-06-16 05:47:39 51°18.399 2°54.131 12.2 26 14.5 101820 86
2009-06-16 05:47:45 51°18.416 2°54.151 10.3 306 14.5 101820 86
2009-06-16 05:47:50 51°18.43 2°54.166 9.7 25 14.6 101820 87
2009-06-16 05:47:55 51°18.444 2°54.183 10.2 304 14.6 101820 87
2009-06-16 05:47:59 51°18.456 2°54.194 12.3 244 14.5 101820 87
2009-06-16 05:48:05 51°18.473 2°54.214 11.7 307 14.5 101820 87
2009-06-16 05:48:10 51°18.488 2°54.229 11.7 25 14.5 101820 86
2009-06-16 05:48:15 51°18.502 2°54.244 11.5 307 14.5 101820 86
2009-06-16 05:48:19 51°18.514 2°54.257 11.1 25 14.5 101820 86
2009-06-16 05:48:25 51°18.531 2°54.275 11.8 310 14.5 101820 86
2009-06-16 05:48:30 51°18.546 2°54.291 12.3 19 14.5 101820 87
2009-06-16 05:48:35 51°18.56 2°54.307 10.8 283 14.5 101820 87
2009-06-16 05:48:40 51°18.575 2°54.322 10.5 28 14.5 101820 86
2009-06-16 05:48:45 51°18.589 2°54.338 10.9 306 14.5 101820 86
2009-06-16 05:48:50 51°18.603 2°54.354 11.8 25 14.5 101820 87
2009-06-16 05:48:55 51°18.618 2°54.369 13.3 304 14.5 101820 87
2009-06-16 05:48:59 51°18.629 2°54.382 12.1 25 14.5 101810 87
2009-06-16 05:49:05 51°18.647 2°54.401 12.1 301 14.5 101810 87
2009-06-16 05:49:10 51°18.661 2°54.417 11.3 244 14.6 101820 87
2009-06-16 05:49:15 51°18.675 2°54.433 11.8 306 14.6 101820 87
2009-06-16 05:49:19 51°18.687 2°54.446 10.3 24 14.5 101820 87
2009-06-16 05:49:25 51°18.704 2°54.463 11.7 310 14.5 101820 87
2009-06-16 05:49:30 51°18.718 2°54.48 11.6 26 14.5 101820 86
2009-06-16 05:49:35 51°18.733 2°54.495 11 279 14.5 101820 86
2009-06-16 05:49:39 51°18.744 2°54.508 11.5 23 14.5 101820 86
2009-06-16 05:49:45 51°18.762 2°54.526 10.1 305 14.5 101820 86
2009-06-16 05:49:50 51°18.776 2°54.542 10.7 20 14.5 101840 86
2009-06-16 05:49:55 51°18.791 2°54.557 13 308 14.5 101840 86
2009-06-16 05:49:59 51°18.802 2°54.569 11.8 245 14.5 101820 86
2009-06-16 05:50:04 51°18.816 2°54.586 12.7 305 14.5 101820 86
2009-06-16 05:50:10 51°18.834 2°54.604 12.8 25 14.5 101830 86
2009-06-16 05:50:15 51°18.848 2°54.619 12.4 308 14.5 101830 86
2009-06-16 05:50:19 51°18.86 2°54.631 11.8 23 14.5 101820 86
2009-06-16 05:50:25 51°18.877 2°54.65 11.3 306 14.5 101820 86
2009-06-16 05:50:30 51°18.891 2°54.665 10.6 23 14.5 101820 86
2009-06-16 05:50:35 51°18.906 2°54.68 12.2 305 14.5 101820 86
2009-06-16 05:50:39 51°18.917 2°54.693 12.3 24 14.5 101820 87
2009-06-16 05:50:45 51°18.934 2°54.71 10.9 303 14.5 101820 87
2009-06-16 05:50:50 51°18.948 2°54.727 10.4 24 14.5 101820 87
2009-06-16 05:50:55 51°18.963 2°54.741 11.7 304 14.5 101820 87
2009-06-16 05:51:00 51°18.978 2°54.757 9.1 245 14.5 101820 87
2009-06-16 05:51:05 51°18.992 2°54.773 9.9 301 14.5 101820 87
2009-06-16 05:51:10 51°19.007 2°54.789 10.5 22 14.5 101830 87
2009-06-16 05:51:15 51°19.021 2°54.804 10.3 305 14.5 101830 87
2009-06-16 05:51:20 51°19.035 2°54.82 12.8 24 14.5 101820 86
2009-06-16 05:51:25 51°19.05 2°54.834 10.8 306 14.5 101820 86
2009-06-16 05:51:30 51°19.065 2°54.85 10.8 24 14.5 101820 86
2009-06-16 05:51:35 51°19.079 2°54.865 11.3 279 14.5 101820 86
2009-06-16 05:51:39 51°19.091 2°54.877 9.3 25 14.5 101830 86
2009-06-16 05:51:45 51°19.108 2°54.896 11.5 308 14.5 101830 86
2009-06-16 05:51:50 51°19.122 2°54.911 11.5 24 14.5 101830 87
2009-06-16 05:51:55 51°19.136 2°54.927 11.3 305 14.5 101830 87
2009-06-16 05:51:59 51°19.148 2°54.939 10.4 26 14.5 101810 87
2009-06-16 05:52:05 51°19.165 2°54.957 12.2 307 14.5 101810 87
2009-06-16 05:52:10 51°19.18 2°54.973 11.1 244 14.6 101820 87
2009-06-16 05:52:15 51°19.194 2°54.988 11.6 303 14.6 101820 87
2009-06-16 05:52:19 51°19.206 2°55 11.8 26 14.6 101830 87
2009-06-16 05:52:24 51°19.22 2°55.015 12.1 304 14.6 101830 87
2009-06-16 05:52:30 51°19.237 2°55.035 11.7 26 14.6 101830 87
2009-06-16 05:52:35 51°19.252 2°55.049 10.6 306 14.6 101830 87
2009-06-16 05:52:39 51°19.263 2°55.062 10.6 21 14.6 101830 87
2009-06-16 05:52:45 51°19.281 2°55.081 13.1 310 14.6 101830 87
2009-06-16 05:52:50 51°19.295 2°55.095 13.2 24 14.6 101830 87
2009-06-16 05:52:55 51°19.31 2°55.111 12.4 301 14.6 101830 87
2009-06-16 05:53:00 51°19.324 2°55.126 12.5 24 14.6 101810 87
2009-06-16 05:53:05 51°19.339 2°55.143 13.3 309 14.6 101810 87
2009-06-16 05:53:10 51°19.353 2°55.158 10.6 21 14.6 101820 87
2009-06-16 05:53:15 51°19.368 2°55.173 11 303 14.6 101820 87
2009-06-16 05:53:20 51°19.383 2°55.189 9.4 243 14.6 101830 87
2009-06-16 05:53:25 51°19.398 2°55.204 10.3 304 14.6 101830 87
2009-06-16 05:53:30 51°19.411 2°55.22 11.3 24 14.6 101820 87
2009-06-16 05:53:35 51°19.426 2°55.235 11.3 283 14.6 101820 87
2009-06-16 05:53:40 51°19.44 2°55.252 9.4 20 14.6 101830 87
2009-06-16 05:53:45 51°19.455 2°55.267 11.8 307 14.6 101830 87
2009-06-16 05:53:50 51°19.469 2°55.283 11.5 25 14.6 101830 87
2009-06-16 05:53:55 51°19.484 2°55.298 10.8 307 14.6 101830 87
2009-06-16 05:53:59 51°19.496 2°55.311 12.1 20 14.6 101820 87
2009-06-16 05:54:05 51°19.513 2°55.329 13.6 302 14.6 101820 87
2009-06-16 05:54:10 51°19.527 2°55.345 11 244 14.6 101820 87
2009-06-16 05:54:15 51°19.542 2°55.361 10.4 305 14.6 101820 87
2009-06-16 05:54:19 51°19.553 2°55.373 12 245 14.6 101810 87
2009-06-16 05:54:25 51°19.57 2°55.392 12.4 307 14.6 101810 87
2009-06-16 05:54:30 51°19.585 2°55.407 9.8 23 14.5 101820 87
2009-06-16 05:54:35 51°19.599 2°55.423 10 304 14.5 101820 87
2009-06-16 05:54:39 51°19.611 2°55.435 9.9 244 14.5 101820 86
2009-06-16 05:54:45 51°19.628 2°55.454 11.6 308 14.5 101820 86
2009-06-16 05:54:50 51°19.643 2°55.47 9.6 24 14.5 101820 87
2009-06-16 05:54:55 51°19.657 2°55.486 10.9 307 14.5 101820 87
2009-06-16 05:54:59 51°19.669 2°55.497 9.5 20 14.5 101830 86
2009-06-16 05:55:05 51°19.686 2°55.517 9.4 302 14.5 101830 86
2009-06-16 05:55:10 51°19.701 2°55.531 10.1 24 14.5 101830 86
2009-06-16 05:55:15 51°19.715 2°55.548 10 307 14.5 101830 86
2009-06-16 05:55:20 51°19.73 2°55.562 12.1 26 14.5 101830 87
2009-06-16 05:55:25 51°19.745 2°55.578 12.5 303 14.5 101830 87
2009-06-16 05:55:30 51°19.759 2°55.593 12.9 244 14.5 101820 87
2009-06-16 05:55:35 51°19.774 2°55.609 10.1 282 14.5 101820 87
2009-06-16 05:55:40 51°19.789 2°55.624 11.4 21 14.5 101820 87
2009-06-16 05:55:45 51°19.803 2°55.64 10.6 303 14.5 101820 87
2009-06-16 05:55:50 51°19.818 2°55.655 11.1 244 14.5 101820 86
2009-06-16 05:55:55 51°19.832 2°55.672 10.3 301 14.5 101820 86
2009-06-16 05:56:00 51°19.847 2°55.686 10.5 247 14.5 101840 86
2009-06-16 05:56:05 51°19.861 2°55.702 12.7 307 14.5 101840 86
2009-06-16 05:56:10 51°19.876 2°55.717 10.9 24 14.5 101820 86
2009-06-16 05:56:15 51°19.89 2°55.733 9.6 303 14.5 101820 86
2009-06-16 05:56:19 51°19.902 2°55.745 8.9 245 14.5 101830 86
2009-06-16 05:56:25 51°19.919 2°55.764 10.9 307 14.5 101830 86
2009-06-16 05:56:30 51°19.933 2°55.78 8.5 249 14.5 101830 86
2009-06-16 05:56:35 51°19.948 2°55.795 8.5 304 14.5 101830 86
2009-06-16 05:56:39 51°19.96 2°55.808 10.4 26 14.5 101830 86
2009-06-16 05:56:45 51°19.977 2°55.826 12.4 311 14.5 101830 86
2009-06-16 05:56:50 51°19.992 2°55.842 12.1 23 14.5 101830 86
2009-06-16 05:56:55 51°20.006 2°55.857 12.6 303 14.5 101830 86
2009-06-16 05:56:59 51°20.018 2°55.868 9.2 25 14.6 101830 86
2009-06-16 05:57:04 51°20.032 2°55.884 9.1 304 14.6 101830 86
2009-06-16 05:57:10 51°20.05 2°55.902 10.8 25 14.6 101820 86
2009-06-16 05:57:15 51°20.065 2°55.917 10.5 306 14.6 101820 86
2009-06-16 05:57:19 51°20.076 2°55.93 9.9 245 14.6 101820 87
2009-06-16 05:57:25 51°20.094 2°55.948 9.6 303 14.6 101820 87
2009-06-16 05:57:30 51°20.108 2°55.964 11.7 20 14.6 101830 87
2009-06-16 05:57:35 51°20.123 2°55.978 10 285 14.6 101830 87
2009-06-16 05:57:40 51°20.137 2°55.995 12.5 249 14.6 101820 87
2009-06-16 05:57:45 51°20.152 2°56.01 12.3 304 14.6 101820 87
2009-06-16 05:57:50 51°20.166 2°56.026 9.8 21 14.6 101830 87
2009-06-16 05:57:55 51°20.181 2°56.041 10.9 303 14.6 101830 87
2009-06-16 05:58:00 51°20.195 2°56.057 11.8 21 14.6 101840 87
2009-06-16 05:58:05 51°20.21 2°56.072 9.3 310 14.6 101840 87
2009-06-16 05:58:10 51°20.224 2°56.088 10.1 24 14.6 101830 87
2009-06-16 05:58:15 51°20.239 2°56.104 9.5 307 14.6 101830 87
2009-06-16 05:58:19 51°20.25 2°56.116 11.4 246 14.6 101830 87
2009-06-16 05:58:25 51°20.268 2°56.135 11.7 310 14.6 101830 87
2009-06-16 05:58:30 51°20.283 2°56.151 12 246 14.6 101830 87
2009-06-16 05:58:35 51°20.297 2°56.167 11.5 281 14.6 101830 87
2009-06-16 05:58:39 51°20.308 2°56.18 8.9 20 14.6 101830 87
2009-06-16 05:58:45 51°20.326 2°56.197 9.1 302 14.6 101830 87
2009-06-16 05:58:50 51°20.34 2°56.214 9.2 244 14.6 101830 86
2009-06-16 05:58:55 51°20.355 2°56.229 11.8 304 14.6 101830 86
2009-06-16 05:58:59 51°20.366 2°56.242 10.1 244 14.6 101830 87
2009-06-16 05:59:05 51°20.384 2°56.26 11.4 307 14.6 101830 87
2009-06-16 05:59:10 51°20.398 2°56.276 10.2 246 14.7 101830 87
2009-06-16 05:59:15 51°20.413 2°56.291 12.2 305 14.7 101830 87
2009-06-16 05:59:19 51°20.425 2°56.304 9.7 25 14.7 101830 87
2009-06-16 05:59:25 51°20.442 2°56.323 9.8 305 14.7 101830 87
2009-06-16 05:59:30 51°20.457 2°56.337 11.5 244 14.7 101830 87
2009-06-16 05:59:35 51°20.471 2°56.353 9.3 302 14.7 101830 87
2009-06-16 05:59:40 51°20.486 2°56.369 11.1 21 14.7 101830 87
2009-06-16 05:59:45 51°20.501 2°56.384 11.9 303 14.7 101830 87
2009-06-16 05:59:50 51°20.515 2°56.4 12.4 24 14.7 101830 87
2009-06-16 05:59:55 51°20.53 2°56.415 10.1 304 14.7 101830 87
2009-06-16 06:00:00 51°20.544 2°56.431 9.8 24 14.7 101820 87
2009-06-16 06:00:05 51°20.559 2°56.446 11.8 307 14.7 101820 87
2009-06-16 06:00:10 51°20.573 2°56.463 10.2 25 14.7 101820 87
2009-06-16 06:00:15 51°20.588 2°56.478 12.5 307 14.7 101820 87
2009-06-16 06:00:19 51°20.6 2°56.49 9.6 24 14.7 101830 86
2009-06-16 06:00:25 51°20.617 2°56.509 12.1 306 14.7 101830 86
2009-06-16 06:00:30 51°20.632 2°56.524 10.7 21 14.7 101830 87
2009-06-16 06:00:35 51°20.646 2°56.541 11.4 301 14.7 101830 87
2009-06-16 06:00:39 51°20.658 2°56.552 9 246 14.7 101820 87
2009-06-16 06:00:45 51°20.675 2°56.572 11.6 309 14.7 101820 87
2009-06-16 06:00:50 51°20.69 2°56.585 10.2 21 14.7 101820 86
2009-06-16 06:00:55 51°20.704 2°56.603 11.1 302 14.7 101820 86
2009-06-16 06:00:59 51°20.716 2°56.614 11.4 245 14.7 101830 86
2009-06-16 06:01:05 51°20.733 2°56.633 10.4 300 14.7 101830 86
2009-06-16 06:01:10 51°20.748 2°56.648 9.8 244 14.7 101830 86
2009-06-16 06:01:15 51°20.763 2°56.663 12.1 304 14.7 101830 86
2009-06-16 06:01:19 51°20.775 2°56.675 10 26 14.7 101830 87
2009-06-16 06:01:24 51°20.789 2°56.691 12.7 303 14.7 101830 87
2009-06-16 06:01:30 51°20.807 2°56.71 12.3 23 14.7 101830 86
2009-06-16 06:01:35 51°20.821 2°56.726 12.4 308 14.7 101830 86
2009-06-16 06:01:39 51°20.833 2°56.738 12 25 14.7 101820 86
2009-06-16 06:01:45 51°20.85 2°56.758 11.3 307 14.7 101820 86
2009-06-16 06:01:50 51°20.865 2°56.774 9.8 27 14.7 101830 87
2009-06-16 06:01:55 51°20.879 2°56.79 11.5 303 14.7 101830 87
2009-06-16 06:02:00 51°20.894 2°56.805 12.6 25 14.7 101820 86
2009-06-16 06:02:05 51°20.908 2°56.822 11 305 14.7 101820 86
2009-06-16 06:02:10 51°20.923 2°56.837 11.3 23 14.7 101820 86
2009-06-16 06:02:15 51°20.937 2°56.852 12.7 310 14.7 101820 86
2009-06-16 06:02:20 51°20.952 2°56.868 12.6 19 14.7 101820 86
2009-06-16 06:02:25 51°20.967 2°56.884 9.8 306 14.7 101820 86
2009-06-16 06:02:30 51°20.981 2°56.9 13.2 23 14.7 101830 86
2009-06-16 06:02:35 51°20.996 2°56.915 10.4 282 14.7 101830 86
2009-06-16 06:02:39 51°21.008 2°56.928 10.7 24 14.7 101830 86
2009-06-16 06:02:45 51°21.026 2°56.947 11.9 305 14.7 101830 86
2009-06-16 06:02:50 51°21.04 2°56.964 10.4 245 14.7 101830 86
2009-06-16 06:02:55 51°21.055 2°56.979 9 306 14.7 101830 86
2009-06-16 06:02:59 51°21.066 2°56.994 9.7 20 14.7 101830 86
2009-06-16 06:03:05 51°21.084 2°57.012 11.8 308 14.7 101830 86
2009-06-16 06:03:10 51°21.098 2°57.029 12.3 250 14.7 101830 86
2009-06-16 06:03:15 51°21.113 2°57.045 11.4 304 14.7 101830 86
2009-06-16 06:03:19 51°21.125 2°57.058 12.1 249 14.7 101830 86
2009-06-16 06:03:25 51°21.143 2°57.076 10.5 304 14.7 101830 86
2009-06-16 06:03:30 51°21.157 2°57.093 12 250 14.7 101820 86
2009-06-16 06:03:35 51°21.172 2°57.107 10.7 280 14.7 101820 86
2009-06-16 06:03:39 51°21.183 2°57.122 9.5 247 14.7 101840 85
2009-06-16 06:03:44 51°21.199 2°57.135 10 304 14.7 101840 85
2009-06-16 06:03:50 51°21.216 2°57.156 10 22 14.7 101850 85
2009-06-16 06:03:55 51°21.231 2°57.171 12.5 306 14.7 101850 85
2009-06-16 06:03:59 51°21.243 2°57.184 12.4 22 14.7 101840 86
2009-06-16 06:04:05 51°21.261 2°57.203 10.1 303 14.7 101840 86
2009-06-16 06:04:10 51°21.276 2°57.219 10.5 245 14.7 101830 86
2009-06-16 06:04:15 51°21.29 2°57.235 12.5 306 14.7 101830 86
2009-06-16 06:04:20 51°21.305 2°57.251 9.9 25 14.7 101830 86
2009-06-16 06:04:25 51°21.32 2°57.266 11.2 304 14.7 101830 86
2009-06-16 06:04:30 51°21.335 2°57.283 10.8 28 14.7 101830 86
2009-06-16 06:04:35 51°21.349 2°57.298 11.9 284 14.7 101830 86
2009-06-16 06:04:40 51°21.364 2°57.315 10.9 18 14.8 101830 86
2009-06-16 06:04:45 51°21.379 2°57.33 11.2 305 14.8 101830 86
2009-06-16 06:04:50 51°21.394 2°57.347 9.5 245 14.7 101830 86
2009-06-16 06:04:55 51°21.409 2°57.363 12.3 306 14.7 101830 86
2009-06-16 06:04:59 51°21.421 2°57.375 9.6 249 14.7 101820 85
2009-06-16 06:05:05 51°21.438 2°57.396 9.1 307 14.7 101820 85
2009-06-16 06:05:10 51°21.453 2°57.411 9.5 21 14.7 101830 86
2009-06-16 06:05:15 51°21.468 2°57.428 8.9 309 14.7 101830 86
2009-06-16 06:05:19 51°21.48 2°57.441 11.2 20 14.7 101830 86
2009-06-16 06:05:25 51°21.498 2°57.46 9.5 307 14.7 101830 86
2009-06-16 06:05:30 51°21.512 2°57.477 8.6 23 14.7 101830 86
2009-06-16 06:05:35 51°21.527 2°57.492 10.4 306 14.7 101830 86
2009-06-16 06:05:39 51°21.539 2°57.505 11.8 25 14.8 101830 86
2009-06-16 06:05:45 51°21.556 2°57.524 12.1 309 14.8 101830 86
2009-06-16 06:05:50 51°21.571 2°57.54 13 19 14.8 101840 86
2009-06-16 06:05:55 51°21.586 2°57.556 10.4 308 14.8 101840 86
2009-06-16 06:05:59 51°21.598 2°57.568 11.3 19 14.8 101830 86
2009-06-16 06:06:05 51°21.615 2°57.588 9.8 308 14.8 101830 86
2009-06-16 06:06:10 51°21.63 2°57.603 10.2 24 14.7 101820 86
2009-06-16 06:06:15 51°21.645 2°57.62 11.2 306 14.7 101820 86
2009-06-16 06:06:20 51°21.66 2°57.635 9.7 22 14.7 101830 85
2009-06-16 06:06:25 51°21.674 2°57.652 9.6 303 14.7 101830 85
2009-06-16 06:06:30 51°21.689 2°57.668 11 246 14.7 101840 85
2009-06-16 06:06:35 51°21.703 2°57.685 11.6 310 14.7 101840 85
2009-06-16 06:06:39 51°21.715 2°57.697 9 21 14.7 101830 86
2009-06-16 06:06:45 51°21.732 2°57.718 11.2 306 14.7 101830 86
2009-06-16 06:06:50 51°21.747 2°57.733 9.3 247 14.7 101830 85
2009-06-16 06:06:55 51°21.762 2°57.75 11.2 309 14.7 101830 85
2009-06-16 06:06:59 51°21.774 2°57.764 10.1 25 14.7 101830 85
2009-06-16 06:07:05 51°21.791 2°57.783 11.5 308 14.7 101830 85
2009-06-16 06:07:10 51°21.806 2°57.8 11.3 247 14.7 101830 86
2009-06-16 06:07:15 51°21.82 2°57.815 11.2 309 14.7 101830 86
2009-06-16 06:07:19 51°21.832 2°57.828 12.6 247 14.7 101840 86
2009-06-16 06:07:25 51°21.85 2°57.847 10.9 305 14.7 101840 86
2009-06-16 06:07:30 51°21.864 2°57.863 10.7 22 14.7 101830 86
2009-06-16 06:07:35 51°21.879 2°57.879 10.4 304 14.7 101830 86
2009-06-16 06:07:39 51°21.89 2°57.893 12.5 20 14.7 101830 86
2009-06-16 06:07:45 51°21.908 2°57.911 10.2 302 14.7 101830 86
2009-06-16 06:07:50 51°21.923 2°57.928 11.9 23 14.7 101830 86
2009-06-16 06:07:55 51°21.938 2°57.942 10.7 302 14.7 101830 86
2009-06-16 06:07:59 51°21.949 2°57.957 10.9 22 14.7 101830 86
2009-06-16 06:08:05 51°21.967 2°57.975 8.4 308 14.7 101830 86
2009-06-16 06:08:10 51°21.981 2°57.991 11.9 21 14.7 101830 86
2009-06-16 06:08:15 51°21.996 2°58.008 10.4 304 14.7 101830 86
2009-06-16 06:08:19 51°22.008 2°58.02 12 24 14.6 101830 86
2009-06-16 06:08:25 51°22.025 2°58.04 11.7 301 14.6 101830 86
2009-06-16 06:08:30 51°22.04 2°58.056 10.8 245 14.6 101830 86
2009-06-16 06:08:35 51°22.055 2°58.073 9.9 282 14.6 101830 86
2009-06-16 06:08:39 51°22.067 2°58.086 11.6 20 14.6 101830 86
2009-06-16 06:08:45 51°22.084 2°58.105 12.2 307 14.6 101830 86
2009-06-16 06:08:50 51°22.099 2°58.121 11.3 21 14.6 101830 86
2009-06-16 06:08:55 51°22.113 2°58.138 11.6 305 14.6 101830 86
2009-06-16 06:09:00 51°22.128 2°58.153 11.3 244 14.7 101830 86
2009-06-16 06:09:05 51°22.143 2°58.17 12.4 308 14.7 101830 86
2009-06-16 06:09:10 51°22.158 2°58.185 11.4 24 14.6 101820 86
2009-06-16 06:09:15 51°22.172 2°58.201 9.8 304 14.6 101820 86
2009-06-16 06:09:20 51°22.187 2°58.217 9.7 22 14.6 101830 86
2009-06-16 06:09:25 51°22.202 2°58.233 10.4 304 14.6 101830 86
2009-06-16 06:09:30 51°22.217 2°58.25 11.4 22 14.6 101830 83
2009-06-16 06:09:35 51°22.232 2°58.264 9.5 302 14.6 101830 83
2009-06-16 06:09:39 51°22.244 2°58.278 10.8 23 14.6 101830 83
2009-06-16 06:09:45 51°22.261 2°58.297 11 310 14.6 101830 83
2009-06-16 06:09:50 51°22.276 2°58.313 9.5 25 14.6 101830 83
2009-06-16 06:09:55 51°22.29 2°58.33 10.7 304 14.6 101830 83
2009-06-16 06:09:59 51°22.302 2°58.343 9.1 25 14.6 101840 82
2009-06-16 06:10:05 51°22.319 2°58.363 11.5 303 14.6 101840 82
2009-06-16 06:10:10 51°22.334 2°58.378 11.8 21 14.6 101840 83
2009-06-16 06:10:15 51°22.349 2°58.396 9.9 309 14.6 101840 83
2009-06-16 06:10:19 51°22.361 2°58.408 9.5 245 14.6 101840 85
2009-06-16 06:10:25 51°22.378 2°58.428 9.7 306 14.6 101840 85
2009-06-16 06:10:30 51°22.393 2°58.444 10.9 19 14.6 101830 86
2009-06-16 06:10:35 51°22.407 2°58.461 10.7 280 14.6 101830 86
2009-06-16 06:10:39 51°22.419 2°58.474 12.5 246 14.6 101830 85
2009-06-16 06:10:45 51°22.437 2°58.493 11.5 309 14.6 101830 85
2009-06-16 06:10:50 51°22.452 2°58.509 11.2 21 14.6 101830 85
2009-06-16 06:10:55 51°22.467 2°58.525 11.3 305 14.6 101830 85
2009-06-16 06:11:00 51°22.482 2°58.542 9.7 245 14.6 101830 86
2009-06-16 06:11:05 51°22.497 2°58.557 9.7 304 14.6 101830 86
2009-06-16 06:11:10 51°22.511 2°58.575 12.8 21 14.5 101840 86
2009-06-16 06:11:15 51°22.526 2°58.59 9.9 302 14.5 101840 86
2009-06-16 06:11:20 51°22.541 2°58.607 10.6 247 14.5 101840 86
2009-06-16 06:11:25 51°22.556 2°58.623 12.1 307 14.5 101840 86
2009-06-16 06:11:30 51°22.57 2°58.64 10.6 245 14.5 101840 86
2009-06-16 06:11:35 51°22.585 2°58.657 12.4 279 14.5 101840 86
2009-06-16 06:11:39 51°22.597 2°58.669 11.2 247 14.5 101830 86
2009-06-16 06:11:45 51°22.614 2°58.689 12 305 14.5 101830 86
2009-06-16 06:11:50 51°22.629 2°58.705 9.3 246 14.5 101820 86
2009-06-16 06:11:55 51°22.644 2°58.721 10.2 310 14.5 101820 86
2009-06-16 06:11:59 51°22.656 2°58.735 11.7 21 14.5 101830 85
2009-06-16 06:12:05 51°22.674 2°58.753 10 303 14.5 101830 85
2009-06-16 06:12:10 51°22.688 2°58.771 10.2 245 14.5 101840 86
2009-06-16 06:12:15 51°22.703 2°58.786 11.2 300 14.5 101840 86
2009-06-16 06:12:19 51°22.715 2°58.801 10.2 244 14.5 101830 86
2009-06-16 06:12:25 51°22.733 2°58.819 10.9 306 14.5 101830 86
2009-06-16 06:12:30 51°22.748 2°58.836 11.6 21 14.5 101840 86
2009-06-16 06:12:35 51°22.763 2°58.853 10.5 307 14.5 101840 86
2009-06-16 06:12:39 51°22.775 2°58.865 10.3 26 14.5 101840 86
2009-06-16 06:12:45 51°22.792 2°58.886 12.1 304 14.5 101840 86
2009-06-16 06:12:50 51°22.807 2°58.902 9.5 246 14.5 101840 86
2009-06-16 06:12:55 51°22.822 2°58.919 11.4 309 14.5 101840 86
2009-06-16 06:12:59 51°22.834 2°58.931 8.9 244 14.5 101830 86
2009-06-16 06:13:05 51°22.852 2°58.952 10.7 306 14.5 101830 86
2009-06-16 06:13:10 51°22.867 2°58.968 11.9 245 14.5 101830 86
2009-06-16 06:13:15 51°22.881 2°58.985 12.5 310 14.5 101830 86
2009-06-16 06:13:20 51°22.896 2°59.001 12.6 26 14.5 101830 86
2009-06-16 06:13:25 51°22.911 2°59.019 12 309 14.5 101830 86
2009-06-16 06:13:30 51°22.926 2°59.034 11.4 20 14.5 101840 86
2009-06-16 06:13:35 51°22.94 2°59.051 8.5 279 14.5 101840 86
2009-06-16 06:13:39 51°22.952 2°59.064 12.1 247 14.5 101840 86
2009-06-16 06:13:45 51°22.97 2°59.084 10.4 305 14.5 101840 86
2009-06-16 06:13:50 51°22.985 2°59.1 10.7 246 14.5 101840 86
2009-06-16 06:13:55 51°23 2°59.115 8.7 307 14.5 101840 86
2009-06-16 06:13:59 51°23.012 2°59.129 8.8 247 14.5 101840 86
2009-06-16 06:14:05 51°23.03 2°59.148 10.1 304 14.5 101840 86
2009-06-16 06:14:10 51°23.044 2°59.165 10.9 245 14.5 101840 87
2009-06-16 06:14:15 51°23.059 2°59.181 9.3 306 14.5 101840 87
2009-06-16 06:14:19 51°23.071 2°59.194 9.2 247 14.6 101840 87
2009-06-16 06:14:25 51°23.089 2°59.214 8.8 308 14.6 101840 87
2009-06-16 06:14:30 51°23.103 2°59.231 11.5 24 14.6 101850 87
2009-06-16 06:14:35 51°23.118 2°59.247 12.8 310 14.6 101850 87
2009-06-16 06:14:39 51°23.13 2°59.26 9.5 22 14.6 101840 87
2009-06-16 06:14:45 51°23.147 2°59.281 12 303 14.6 101840 87
2009-06-16 06:14:50 51°23.163 2°59.296 9.6 24 14.6 101840 87
2009-06-16 06:14:55 51°23.177 2°59.313 13.1 301 14.6 101840 87
2009-06-16 06:14:59 51°23.189 2°59.326 12.8 246 14.6 101830 87
2009-06-16 06:15:05 51°23.207 2°59.345 12.2 308 14.6 101830 87
2009-06-16 06:15:10 51°23.222 2°59.361 11.7 248 14.6 101830 87
2009-06-16 06:15:15 51°23.236 2°59.377 9 301 14.6 101830 87
2009-06-16 06:15:20 51°23.251 2°59.394 11.4 21 14.5 101840 86
2009-06-16 06:15:24 51°23.262 2°59.408 11.1 307 14.5 101840 86
2009-06-16 06:15:30 51°23.281 2°59.427 10.4 24 14.6 101840 85
2009-06-16 06:15:35 51°23.295 2°59.444 10.4 279 14.6 101840 85
2009-06-16 06:15:40 51°23.31 2°59.46 10.2 246 14.5 101840 86
2009-06-16 06:15:45 51°23.325 2°59.477 11 306 14.5 101840 86
2009-06-16 06:15:50 51°23.339 2°59.495 11.8 24 14.6 101830 86
2009-06-16 06:15:55 51°23.355 2°59.509 12.6 305 14.6 101830 86
2009-06-16 06:15:59 51°23.366 2°59.524 13.2 20 14.6 101830 86
2009-06-16 06:16:05 51°23.384 2°59.542 13.3 303 14.6 101830 86
2009-06-16 06:16:10 51°23.399 2°59.558 10.3 243 14.6 101840 86
2009-06-16 06:16:15 51°23.414 2°59.573 12.7 302 14.6 101840 86
2009-06-16 06:16:19 51°23.426 2°59.585 12.2 25 14.5 101830 85
2009-06-16 06:16:25 51°23.444 2°59.605 13.6 301 14.5 101830 85
2009-06-16 06:16:30 51°23.459 2°59.619 9.8 26 14.5 101840 86
2009-06-16 06:16:35 51°23.473 2°59.636 12.5 308 14.5 101840 86
2009-06-16 06:16:39 51°23.485 2°59.647 10 22 14.5 101830 85
2009-06-16 06:16:45 51°23.503 2°59.666 13 308 14.5 101830 85
2009-06-16 06:16:50 51°23.518 2°59.68 10.9 245 14.5 101840 85
2009-06-16 06:16:55 51°23.532 2°59.696 12.9 308 14.5 101840 85
2009-06-16 06:16:59 51°23.544 2°59.708 12.5 20 14.6 101830 85
2009-06-16 06:17:05 51°23.562 2°59.727 12.3 303 14.6 101830 85
2009-06-16 06:17:10 51°23.576 2°59.743 11.5 20 14.6 101830 85
2009-06-16 06:17:15 51°23.591 2°59.758 11.4 309 14.6 101830 85
2009-06-16 06:17:19 51°23.603 2°59.771 10.4 27 14.6 101840 84
2009-06-16 06:17:25 51°23.621 2°59.789 9.9 306 14.6 101840 84
2009-06-16 06:17:30 51°23.635 2°59.805 11.8 243 14.6 101850 84
2009-06-16 06:17:35 51°23.65 2°59.821 12.8 284 14.6 101850 84
2009-06-16 06:17:39 51°23.661 2°59.833 10.7 23 14.6 101840 85
2009-06-16 06:17:45 51°23.679 2°59.853 9.7 303 14.6 101840 85
2009-06-16 06:17:50 51°23.694 2°59.869 10.6 247 14.6 101840 85
2009-06-16 06:17:55 51°23.708 2°59.885 10 304 14.6 101840 85
2009-06-16 06:18:00 51°23.723 2°59.901 9.8 24 14.6 101830 85
2009-06-16 06:18:05 51°23.738 2°59.918 12.2 301 14.6 101830 85
2009-06-16 06:18:10 51°23.753 2°59.933 11.1 22 14.6 101840 85
2009-06-16 06:18:15 51°23.767 2°59.95 12.6 303 14.6 101840 85
2009-06-16 06:18:20 51°23.782 2°59.964 11 245 14.7 101840 85
2009-06-16 06:18:25 51°23.796 2°59.981 13.7 306 14.7 101840 85
2009-06-16 06:18:30 51°23.811 2°59.997 11 247 14.7 101840 85
2009-06-16 06:18:35 51°23.826 3°0.012 10.2 310 14.7 101840 85
2009-06-16 06:18:39 51°23.837 3°0.025 11.3 23 14.7 101830 85
2009-06-16 06:18:45 51°23.855 3°0.043 10.9 307 14.7 101830 85
2009-06-16 06:18:50 51°23.87 3°0.058 12.5 245 14.6 101850 84
2009-06-16 06:18:55 51°23.884 3°0.075 10.4 302 14.6 101850 84
2009-06-16 06:19:00 51°23.899 3°0.09 11.3 22 14.6 101840 84
2009-06-16 06:19:05 51°23.913 3°0.105 11.3 301 14.6 101840 84
2009-06-16 06:19:10 51°23.928 3°0.121 11.3 248 14.7 101850 85
2009-06-16 06:19:15 51°23.942 3°0.137 11.9 307 14.7 101850 85
2009-06-16 06:19:19 51°23.954 3°0.149 9.4 27 14.7 101840 85
2009-06-16 06:19:25 51°23.972 3°0.167 10 301 14.7 101840 85
2009-06-16 06:19:30 51°23.986 3°0.183 12 22 14.7 101840 85
2009-06-16 06:19:35 51°24.001 3°0.198 11.3 281 14.7 101840 85
2009-06-16 06:19:39 51°24.012 3°0.211 10.8 23 14.7 101840 85
2009-06-16 06:19:45 51°24.03 3°0.229 12.3 310 14.7 101840 85
2009-06-16 06:19:50 51°24.045 3°0.246 11.6 19 14.7 101840 85
2009-06-16 06:19:55 51°24.06 3°0.261 13.4 304 14.7 101840 85
2009-06-16 06:20:00 51°24.074 3°0.276 13 21 14.7 101840 85
2009-06-16 06:20:05 51°24.089 3°0.291 10.5 303 14.7 101840 85
2009-06-16 06:20:10 51°24.103 3°0.308 14.2 27 14.7 101840 84
2009-06-16 06:20:15 51°24.118 3°0.323 12.4 308 14.7 101840 84
2009-06-16 06:20:20 51°24.132 3°0.339 12.6 23 14.7 101830 84
2009-06-16 06:20:25 51°24.147 3°0.354 13.7 303 14.7 101830 84
2009-06-16 06:20:30 51°24.162 3°0.37 12.3 23 14.7 101830 84
2009-06-16 06:20:35 51°24.177 3°0.386 13.2 305 14.7 101830 84
2009-06-16 06:20:40 51°24.192 3°0.4 11.8 22 14.7 101840 84
2009-06-16 06:20:45 51°24.206 3°0.416 10.5 302 14.7 101840 84
2009-06-16 06:20:50 51°24.222 3°0.431 8.6 22 14.7 101840 84
2009-06-16 06:20:55 51°24.236 3°0.447 14 306 14.7 101840 84
2009-06-16 06:20:59 51°24.248 3°0.458 12.8 21 14.7 101830 84
2009-06-16 06:21:05 51°24.266 3°0.477 10.4 310 14.7 101830 84
2009-06-16 06:21:10 51°24.28 3°0.493 10.1 26 14.7 101830 84
2009-06-16 06:21:15 51°24.295 3°0.508 10.9 306 14.7 101830 84
2009-06-16 06:21:19 51°24.307 3°0.52 11.7 25 14.8 101840 85
2009-06-16 06:21:25 51°24.324 3°0.54 10.5 304 14.8 101840 85
2009-06-16 06:21:30 51°24.338 3°0.554 11.6 24 14.8 101840 84
2009-06-16 06:21:35 51°24.353 3°0.568 9.3 287 14.8 101840 84
2009-06-16 06:21:39 51°24.364 3°0.582 11.2 25 14.7 101840 85
2009-06-16 06:21:45 51°24.382 3°0.599 11.3 309 14.7 101840 85
2009-06-16 06:21:50 51°24.396 3°0.615 10.2 21 14.8 101840 85
2009-06-16 06:21:55 51°24.411 3°0.63 12.1 310 14.8 101840 85
2009-06-16 06:21:59 51°24.423 3°0.642 10.1 23 14.8 101850 85
2009-06-16 06:22:05 51°24.44 3°0.659 9.5 303 14.8 101850 85
2009-06-16 06:22:10 51°24.455 3°0.674 10.6 24 14.8 101830 85
2009-06-16 06:22:15 51°24.47 3°0.689 11.3 307 14.8 101830 85
2009-06-16 06:22:20 51°24.484 3°0.704 9.9 26 14.8 101850 85
2009-06-16 06:22:25 51°24.499 3°0.72 12.3 302 14.8 101850 85
2009-06-16 06:22:30 51°24.513 3°0.734 13.5 23 14.8 101850 85
2009-06-16 06:22:35 51°24.528 3°0.75 10.4 301 14.8 101850 85
2009-06-16 06:22:39 51°24.539 3°0.763 13.2 245 14.8 101840 85
2009-06-16 06:22:45 51°24.557 3°0.78 9.7 311 14.8 101840 85
2009-06-16 06:22:50 51°24.572 3°0.795 10.6 22 14.8 101850 85
2009-06-16 06:22:55 51°24.586 3°0.812 13 308 14.8 101850 85
2009-06-16 06:23:00 51°24.601 3°0.825 10.4 22 14.8 101850 85
2009-06-16 06:23:05 51°24.615 3°0.842 10.1 306 14.8 101850 85
2009-06-16 06:23:10 51°24.63 3°0.856 9.9 245 14.8 101850 85
2009-06-16 06:23:15 51°24.644 3°0.872 9.4 303 14.8 101850 85
2009-06-16 06:23:19 51°24.656 3°0.884 11.7 21 14.8 101840 84
2009-06-16 06:23:25 51°24.673 3°0.903 11.5 304 14.8 101840 84
2009-06-16 06:23:30 51°24.688 3°0.918 12.3 28 14.8 101830 85
2009-06-16 06:23:35 51°24.703 3°0.933 12.8 286 14.8 101830 85
2009-06-16 06:23:39 51°24.714 3°0.946 12.7 22 14.8 101850 85
2009-06-16 06:23:45 51°24.731 3°0.965 12.8 308 14.8 101850 85
2009-06-16 06:23:50 51°24.746 3°0.98 11.3 20 14.8 101840 86
2009-06-16 06:23:55 51°24.76 3°0.996 12.5 308 14.8 101840 86
2009-06-16 06:23:59 51°24.772 3°1.008 11.1 24 14.8 101850 85
2009-06-16 06:24:05 51°24.789 3°1.027 10.9 302 14.8 101850 85
2009-06-16 06:24:10 51°24.803 3°1.042 10.9 25 14.8 101830 85
2009-06-16 06:24:15 51°24.818 3°1.057 10.9 304 14.8 101830 85
2009-06-16 06:24:19 51°24.829 3°1.069 11.3 24 14.8 101840 85
2009-06-16 06:24:25 51°24.846 3°1.088 9.7 305 14.8 101840 85
2009-06-16 06:24:30 51°24.861 3°1.103 10.4 22 14.8 101840 85
2009-06-16 06:24:35 51°24.876 3°1.118 9.6 303 14.8 101840 85
2009-06-16 06:24:40 51°24.889 3°1.134 12 24 14.8 101840 85
2009-06-16 06:24:45 51°24.904 3°1.149 12.8 308 14.8 101840 85
2009-06-16 06:24:50 51°24.918 3°1.165 11.5 21 14.8 101850 85
2009-06-16 06:24:55 51°24.933 3°1.18 11.5 305 14.8 101850 85
2009-06-16 06:25:00 51°24.947 3°1.195 11.9 22 14.8 101840 85
2009-06-16 06:25:05 51°24.961 3°1.211 12.2 302 14.8 101840 85
2009-06-16 06:25:10 51°24.976 3°1.226 12.1 247 14.8 101850 84
2009-06-16 06:25:15 51°24.991 3°1.241 8.2 303 14.8 101850 84
2009-06-16 06:25:19 51°25.002 3°1.254 9.3 22 14.8 101840 84
2009-06-16 06:25:25 51°25.02 3°1.271 10.5 304 14.8 101840 84
2009-06-16 06:25:30 51°25.034 3°1.288 9.9 20 14.8 101850 85
2009-06-16 06:25:35 51°25.049 3°1.302 9.2 283 14.8 101850 85
2009-06-16 06:25:39 51°25.06 3°1.314 11.1 245 14.8 101850 85
2009-06-16 06:25:45 51°25.077 3°1.334 10 308 14.8 101850 85
2009-06-16 06:25:50 51°25.092 3°1.347 11.4 246 14.8 101860 85
2009-06-16 06:25:55 51°25.106 3°1.364 11.1 303 14.8 101860 85
2009-06-16 06:25:59 51°25.118 3°1.376 10.3 246 14.8 101840 86
2009-06-16 06:26:05 51°25.135 3°1.394 9.1 302 14.8 101840 86
2009-06-16 06:26:10 51°25.149 3°1.408 13.3 24 14.8 101840 85
2009-06-16 06:26:15 51°25.164 3°1.424 11.4 303 14.8 101840 85
2009-06-16 06:26:19 51°25.176 3°1.435 11.1 244 14.8 101850 85
2009-06-16 06:26:24 51°25.19 3°1.451 11.6 303 14.8 101850 85
2009-06-16 06:26:30 51°25.207 3°1.47 12.8 247 14.8 101850 85
2009-06-16 06:26:35 51°25.222 3°1.484 10.5 308 14.8 101850 85
2009-06-16 06:26:39 51°25.233 3°1.497 10.6 247 14.8 101840 86
2009-06-16 06:26:45 51°25.251 3°1.514 11.3 306 14.8 101840 86
2009-06-16 06:26:50 51°25.265 3°1.53 9.2 248 14.8 101850 85
2009-06-16 06:26:55 51°25.28 3°1.545 10.5 306 14.8 101850 85
2009-06-16 06:26:59 51°25.292 3°1.557 11.8 19 14.8 101850 85
2009-06-16 06:27:05 51°25.309 3°1.576 8.6 304 14.8 101850 85
2009-06-16 06:27:10 51°25.324 3°1.59 9.4 247 14.8 101840 85
2009-06-16 06:27:15 51°25.338 3°1.607 9.8 304 14.8 101840 85
2009-06-16 06:27:20 51°25.353 3°1.621 10.2 21 14.8 101850 85
2009-06-16 06:27:25 51°25.367 3°1.637 10 301 14.8 101850 85
2009-06-16 06:27:30 51°25.382 3°1.652 11.9 23 14.8 101840 85
2009-06-16 06:27:35 51°25.396 3°1.667 11.8 278 14.8 101840 85
2009-06-16 06:27:39 51°25.408 3°1.679 12.6 25 14.8 101850 86
2009-06-16 06:27:45 51°25.425 3°1.698 12.1 303 14.8 101850 86
2009-06-16 06:27:50 51°25.44 3°1.713 12.2 245 14.8 101840 86
2009-06-16 06:27:55 51°25.454 3°1.729 10.7 308 14.8 101840 86
2009-06-16 06:27:59 51°25.466 3°1.74 10.8 25 14.8 101850 86
2009-06-16 06:28:05 51°25.483 3°1.759 12.6 303 14.8 101850 86
2009-06-16 06:28:10 51°25.498 3°1.774 12 27 14.8 101840 86
2009-06-16 06:28:15 51°25.512 3°1.79 12.9 308 14.8 101840 86
2009-06-16 06:28:19 51°25.524 3°1.802 11.4 23 14.8 101840 85
2009-06-16 06:28:25 51°25.542 3°1.82 12.5 302 14.8 101840 85
2009-06-16 06:28:30 51°25.556 3°1.836 12.6 22 14.8 101840 86
2009-06-16 06:28:35 51°25.57 3°1.852 12.7 307 14.8 101840 86
2009-06-16 06:28:39 51°25.582 3°1.863 11.2 20 14.8 101850 86
2009-06-16 06:28:45 51°25.599 3°1.882 12.9 302 14.8 101850 86
2009-06-16 06:28:50 51°25.613 3°1.898 11.9 23 14.8 101850 85
2009-06-16 06:28:55 51°25.627 3°1.913 11.7 303 14.8 101850 85
2009-06-16 06:28:59 51°25.639 3°1.925 11.8 23 14.8 101840 85
2009-06-16 06:29:05 51°25.656 3°1.944 12.8 306 14.8 101840 85
2009-06-16 06:29:10 51°25.671 3°1.959 10.1 22 14.8 101840 85
2009-06-16 06:29:15 51°25.685 3°1.976 10.6 304 14.8 101840 85
2009-06-16 06:29:20 51°25.699 3°1.991 9.8 27 14.8 101850 85
2009-06-16 06:29:25 51°25.713 3°2.007 11.4 308 14.8 101850 85
2009-06-16 06:29:30 51°25.727 3°2.024 12.3 22 14.8 101840 85
2009-06-16 06:29:35 51°25.741 3°2.039 12.5 282 14.8 101840 85
2009-06-16 06:29:39 51°25.753 3°2.052 12.9 21 14.8 101850 85
2009-06-16 06:29:45 51°25.77 3°2.073 12.2 302 14.8 101850 85
2009-06-16 06:29:50 51°25.784 3°2.088 10.5 21 14.8 101840 85
2009-06-16 06:29:55 51°25.798 3°2.105 12 305 14.8 101840 85
2009-06-16 06:30:00 51°25.812 3°2.121 11.2 245 14.8 101850 85
2009-06-16 06:30:05 51°25.826 3°2.137 10.2 304 14.8 101850 85
2009-06-16 06:30:10 51°25.84 3°2.154 10.1 246 14.8 101840 85
2009-06-16 06:30:15 51°25.854 3°2.17 10.8 309 14.8 101840 85
2009-06-16 06:30:19 51°25.866 3°2.183 10.5 23 14.8 101850 85
2009-06-16 06:30:25 51°25.883 3°2.202 11.8 308 14.8 101850 85
2009-06-16 06:30:30 51°25.897 3°2.218 10.7 245 14.8 101850 85
2009-06-16 06:30:35 51°25.911 3°2.235 10.7 304 14.8 101850 85
2009-06-16 06:30:39 51°25.923 3°2.248 9.2 246 14.8 101860 85
2009-06-16 06:30:45 51°25.94 3°2.266 11.7 304 14.8 101860 85
2009-06-16 06:30:50 51°25.954 3°2.283 11.6 248 14.8 101850 85
2009-06-16 06:30:55 51°25.969 3°2.298 11.1 309 14.8 101850 85
2009-06-16 06:30:59 51°25.98 3°2.311 11.8 245 14.8 101850 84
2009-06-16 06:31:04 51°25.994 3°2.328 12.3 307 14.8 101850 84
2009-06-16 06:31:10 51°26.011 3°2.347 10.8 246 14.8 101850 84
2009-06-16 06:31:15 51°26.025 3°2.363 12.1 305 14.8 101850 84
2009-06-16 06:31:19 51°26.037 3°2.376 9.7 21 14.8 101850 84
2009-06-16 06:31:25 51°26.054 3°2.396 12 307 14.8 101850 84
2009-06-16 06:31:30 51°26.068 3°2.412 10.1 246 14.8 101860 85
2009-06-16 06:31:35 51°26.082 3°2.429 12.5 304 14.8 101860 85
2009-06-16 06:31:40 51°26.097 3°2.445 12.6 247 14.8 101850 85
2009-06-16 06:31:45 51°26.111 3°2.461 12.9 304 14.8 101850 85
2009-06-16 06:31:50 51°26.125 3°2.477 12.7 247 14.7 101860 85
2009-06-16 06:31:55 51°26.14 3°2.493 10.6 311 14.7 101860 85
2009-06-16 06:31:59 51°26.151 3°2.506 10.6 18 14.7 101850 85
2009-06-16 06:32:05 51°26.169 3°2.525 11.1 309 14.7 101850 85
2009-06-16 06:32:10 51°26.183 3°2.541 10.5 21 14.7 101860 84
2009-06-16 06:32:15 51°26.197 3°2.558 10.7 304 14.7 101860 84
2009-06-16 06:32:19 51°26.209 3°2.57 10.4 23 14.7 101850 84
2009-06-16 06:32:25 51°26.226 3°2.59 11.6 307 14.7 101850 84
2009-06-16 06:32:30 51°26.24 3°2.606 11.1 19 14.7 101840 85
2009-06-16 06:32:35 51°26.254 3°2.622 9.7 304 14.7 101840 85
2009-06-16 06:32:39 51°26.266 3°2.635 11.4 21 14.7 101860 85
2009-06-16 06:32:45 51°26.283 3°2.654 9.9 307 14.7 101860 85
2009-06-16 06:32:50 51°26.298 3°2.67 10.5 250 14.7 101870 84
2009-06-16 06:32:55 51°26.312 3°2.687 10.2 309 14.7 101870 84
2009-06-16 06:32:59 51°26.323 3°2.699 9.8 24 14.7 101860 85
2009-06-16 06:33:05 51°26.34 3°2.719 11.3 307 14.7 101860 85
2009-06-16 06:33:10 51°26.355 3°2.735 11.2 247 14.7 101870 85
2009-06-16 06:33:15 51°26.369 3°2.75 10.3 302 14.7 101870 85
2009-06-16 06:33:19 51°26.381 3°2.762 8.3 244 14.7 101860 85
2009-06-16 06:33:25 51°26.398 3°2.781 10.5 300 14.7 101860 85
2009-06-16 06:33:30 51°26.413 3°2.797 10.2 249 14.8 101850 86
2009-06-16 06:33:35 51°26.427 3°2.812 10.5 278 14.8 101850 86
2009-06-16 06:33:39 51°26.439 3°2.825 10 23 14.7 101860 85
2009-06-16 06:33:45 51°26.456 3°2.844 9 309 14.7 101860 85
2009-06-16 06:33:50 51°26.47 3°2.86 8.8 20 14.7 101860 85
2009-06-16 06:33:55 51°26.485 3°2.875 11.1 302 14.7 101860 85
2009-06-16 06:34:00 51°26.499 3°2.892 11.1 22 14.7 101860 85
2009-06-16 06:34:05 51°26.513 3°2.907 12.8 303 14.7 101860 85
2009-06-16 06:34:10 51°26.528 3°2.922 10.8 248 14.8 101850 85
2009-06-16 06:34:15 51°26.542 3°2.938 11.8 310 14.8 101850 85
2009-06-16 06:34:19 51°26.554 3°2.95 10.2 245 14.8 101860 86
2009-06-16 06:34:25 51°26.571 3°2.969 11.2 308 14.8 101860 86
2009-06-16 06:34:30 51°26.586 3°2.986 12.9 20 14.7 101840 85
2009-06-16 06:34:35 51°26.601 3°3 11.3 306 14.7 101840 85
2009-06-16 06:34:39 51°26.612 3°3.014 11.8 244 14.7 101850 85
2009-06-16 06:34:45 51°26.629 3°3.032 9.6 308 14.7 101850 85
2009-06-16 06:34:50 51°26.643 3°3.048 10.2 250 14.8 101850 86
2009-06-16 06:34:55 51°26.658 3°3.064 10 308 14.8 101850 86
2009-06-16 06:35:00 51°26.672 3°3.08 9 21 14.7 101850 85
2009-06-16 06:35:05 51°26.686 3°3.097 13.3 306 14.7 101850 85
2009-06-16 06:35:10 51°26.701 3°3.111 12.1 26 14.7 101850 85
2009-06-16 06:35:15 51°26.715 3°3.129 13.2 308 14.7 101850 85
2009-06-16 06:35:19 51°26.726 3°3.141 11 247 14.7 101850 85
2009-06-16 06:35:25 51°26.743 3°3.161 10.1 304 14.7 101850 85
2009-06-16 06:35:30 51°26.757 3°3.176 12.6 20 14.8 101850 86
2009-06-16 06:35:35 51°26.772 3°3.191 9.2 283 14.8 101850 86
2009-06-16 06:35:39 51°26.783 3°3.205 10.2 27 14.7 101840 86
2009-06-16 06:35:45 51°26.8 3°3.223 12.6 308 14.7 101840 86